Main page
METAR-TAF:

METAR-TAF

Airports :

Carajás Airport

Parauapebas, Pará, Brazil

latitude: 06-07S, longitude: 050-00W, elevation: 621 m

Current weather observation

The report was made 14 minutes ago, at 10:15 UTC
Wind 2 kt from the Northeast
Temperature 24°C
Humidity 83%
Pressure 1014 hPa
Visibility: 5000 m
smoke

METAR: SBCJ 141015Z 04002KT 5000 FU NSC 24/21 Q1014

Time: 07:29 (10:29 UTC)

Forecast

The report was made 7 hours and 29 minutes ago, at 03:00 UTC
Forecast valid from 14 at 06 UTC to 14 at 18 UTC
Wind 5 kt from the North/Northeast
Visibility: 7000 m
Few clouds at a height of 3000 ft
Probability 30%
from 14 at 09 UTC to 14 at 11 UTC
Visibility: 4000 m
Broken clouds at a height of 800 ft
mist
Becoming
from 14 at 15 UTC to 14 at 17 UTC
Wind 5 kt from the East/Northeast
Visibility: 5000 m
Scattered clouds at a height of 2500 ft
smoke

TAF: SBCJ 140300Z 1406/1418 02005KT 7000 FEW030 TN23/1411Z TX27/1417Z PROB30 1409/1411 4000 BR BKN008 BECMG 1415/1417 07005KT 5000 FU SCT025 RMK PGY

Weather observations and forecasts of more than 4000 airports (METAR and TAF reports).

The available stations are represented by yellow and red dots on the map.

Hover mouse over dot to see the name of the station.

Then click to see weather observations and forecasts.

To change the map : click on the green buttons with a black cross to zoom in, on the green button with a dash to zoom out, or on the green arrows for adjacent maps.


METAR-TAF: